Time;durP1;ratioP1;P1;durP2;ratioP2;P2;SDS_P1;SDS_P2;PMS_P1;PMS_P2;Temp;Humidity;BMP_temperature;BMP_pressure;BME280_temperature;BME280_humidity;BME280_pressure;Samples;Min_cycle;Max_cycle;Signal;HPM_P1;HPM_P2
2021/05/28 00:00:47;;;;;;;3.03;2.78;;;;;;;11.54;69.30;96060.91;5018516;28;20038;-58
2021/05/28 00:03:13;;;;;;;3.10;2.50;;;;;;;11.51;69.74;96066.47;5018393;28;20032;-59
2021/05/28 00:05:38;;;;;;;4.18;3.28;;;;;;;11.43;69.94;96059.25;5007383;28;20041;-59
2021/05/28 00:08:04;;;;;;;3.05;2.85;;;;;;;11.36;70.39;96063.41;5015381;28;20057;-58
2021/05/28 00:10:30;;;;;;;3.63;3.03;;;;;;;11.34;70.71;96076.72;5019725;28;20025;-58
2021/05/28 00:12:55;;;;;;;3.65;3.33;;;;;;;11.31;70.67;96072.56;5016095;28;20113;-58
2021/05/28 00:15:21;;;;;;;3.33;2.85;;;;;;;11.28;71.01;96072.00;5015155;28;20040;-58
2021/05/28 00:17:47;;;;;;;4.15;3.22;;;;;;;11.21;71.43;96060.34;5015103;28;20033;-58
2021/05/28 00:20:14;;;;;;;3.33;3.03;;;;;;;11.15;71.80;96064.34;5015857;28;20108;-58
2021/05/28 00:22:41;;;;;;;5.53;3.15;;;;;;;11.10;72.01;96070.03;5017750;28;20026;-58
2021/05/28 00:25:07;;;;;;;3.55;3.25;;;;;;;11.03;73.44;96074.19;5017570;28;20030;-58
2021/05/28 00:27:33;;;;;;;4.32;3.13;;;;;;;10.93;73.40;96073.31;5017699;28;20076;-58
2021/05/28 00:29:59;;;;;;;3.42;3.13;;;;;;;10.85;73.44;96071.38;5012052;28;20026;-58
2021/05/28 00:32:25;;;;;;;4.70;3.20;;;;;;;10.81;73.46;96059.41;5009474;28;20026;-59
2021/05/28 00:34:51;;;;;;;3.13;2.83;;;;;;;10.77;74.18;96058.88;5010855;28;20130;-58
2021/05/28 00:37:17;;;;;;;2.90;2.70;;;;;;;10.71;73.78;96064.66;5017849;28;20061;-58
2021/05/28 00:39:44;;;;;;;3.55;2.88;;;;;;;10.70;73.29;96057.72;5005087;28;20034;-58
2021/05/28 00:42:10;;;;;;;3.85;3.08;;;;;;;10.68;73.16;96060.50;5012671;28;20497;-58
2021/05/28 00:44:38;;;;;;;3.30;3.10;;;;;;;10.74;73.12;96052.06;5007820;28;20038;-58
2021/05/28 00:47:05;;;;;;;3.78;3.47;;;;;;;10.68;73.24;96057.03;5011566;28;20042;-58
2021/05/28 00:49:30;;;;;;;4.50;3.28;;;;;;;10.67;73.35;96048.31;5009036;28;20030;-58
2021/05/28 00:51:56;;;;;;;3.63;2.92;;;;;;;10.93;72.30;96054.88;5010673;28;20463;-58
2021/05/28 00:54:22;;;;;;;5.22;2.88;;;;;;;10.74;72.92;96046.78;5024435;28;20030;-58
2021/05/28 00:56:48;;;;;;;4.72;3.47;;;;;;;10.58;74.20;96060.47;5017066;28;20055;-57
2021/05/28 00:59:15;;;;;;;3.72;3.10;;;;;;;10.49;74.18;96058.59;5015933;28;20061;-58
2021/05/28 01:01:41;;;;;;;3.30;3.00;;;;;;;10.42;74.75;96060.97;5004435;28;20494;-58
2021/05/28 01:04:07;;;;;;;3.05;2.85;;;;;;;10.39;74.63;96061.19;5024359;28;20043;-58
2021/05/28 01:06:33;;;;;;;4.20;2.85;;;;;;;10.31;75.14;96058.38;5014388;28;20034;-58
2021/05/28 01:08:59;;;;;;;4.00;2.83;;;;;;;10.24;75.65;96058.06;5010959;28;20509;-58
2021/05/28 01:11:24;;;;;;;4.00;3.13;;;;;;;10.16;75.90;96058.69;5015304;28;20026;-58
2021/05/28 01:13:50;;;;;;;3.38;3.08;;;;;;;10.14;75.81;96055.38;5016754;28;20053;-58
2021/05/28 01:16:17;;;;;;;4.60;3.30;;;;;;;10.16;76.14;96047.38;5024909;28;20025;-58
2021/05/28 01:18:43;;;;;;;4.47;3.28;;;;;;;10.16;75.94;96053.44;5024122;28;20097;-58
2021/05/28 01:21:09;;;;;;;3.45;2.78;;;;;;;10.11;75.86;96058.28;5010992;28;20065;-58
2021/05/28 01:23:38;;;;;;;7.25;3.22;;;;;;;10.15;75.84;96064.13;5006153;28;20025;-58
2021/05/28 01:26:05;;;;;;;3.25;3.03;;;;;;;10.08;75.81;96057.72;5015353;28;20029;-58
2021/05/28 01:28:31;;;;;;;3.55;3.25;;;;;;;10.11;76.03;96057.44;5013471;28;20470;-58
2021/05/28 01:30:58;;;;;;;3.78;3.40;;;;;;;10.21;75.27;96066.22;5015486;28;20433;-58
2021/05/28 01:33:27;;;;;;;3.92;3.10;;;;;;;10.11;75.89;96068.78;5015227;28;20086;-58
2021/05/28 01:35:55;;;;;;;3.22;2.92;;;;;;;9.98;76.67;96065.53;5015733;28;20753;-58
2021/05/28 01:38:21;;;;;;;3.65;3.00;;;;;;;10.00;76.00;96067.06;5016416;28;20029;-58
2021/05/28 01:40:46;;;;;;;4.45;3.03;;;;;;;9.96;76.96;96065.66;4997525;28;20093;-57
2021/05/28 01:43:12;;;;;;;3.83;3.53;;;;;;;9.92;77.21;96074.78;5010844;28;20022;-58
2021/05/28 01:45:37;;;;;;;3.53;3.33;;;;;;;9.88;77.03;96070.75;5012127;28;20045;-56
2021/05/28 01:48:04;;;;;;;5.82;3.00;;;;;;;9.83;77.21;96078.16;5016196;28;20031;-58
2021/05/28 01:50:29;;;;;;;4.28;2.88;;;;;;;9.75;78.12;96077.00;5015576;28;20057;-58
2021/05/28 01:52:55;;;;;;;3.63;2.80;;;;;;;9.67;78.37;96070.72;5013166;28;20509;-58
2021/05/28 01:55:20;;;;;;;3.97;2.97;;;;;;;9.67;78.02;96070.72;5013071;28;20026;-58
2021/05/28 01:57:46;;;;;;;5.22;3.50;;;;;;;9.65;77.61;96070.84;5015230;28;20124;-58
2021/05/28 02:00:15;;;;;;;3.83;2.95;;;;;;;9.58;77.83;96067.91;5015380;28;20077;-58
2021/05/28 02:02:41;;;;;;;3.10;2.90;;;;;;;9.60;77.61;96080.91;5015837;28;20522;-57
2021/05/28 02:05:08;;;;;;;3.25;2.90;;;;;;;9.64;77.65;96070.97;5014870;28;20109;-57
2021/05/28 02:07:35;;;;;;;3.42;3.03;;;;;;;9.59;78.18;96073.97;5009807;28;20042;-57
2021/05/28 02:10:00;;;;;;;4.78;3.55;;;;;;;9.53;78.57;96074.47;5001325;28;20030;-59
2021/05/28 02:12:26;;;;;;;6.15;3.30;;;;;;;9.54;78.44;96070.91;5014352;28;20021;-58
2021/05/28 02:14:55;;;;;;;3.50;3.20;;;;;;;9.55;78.83;96076.03;5014484;28;20519;-58
2021/05/28 02:17:21;;;;;;;3.83;3.40;;;;;;;9.49;79.00;96092.28;5015577;28;20076;-58
2021/05/28 02:19:47;;;;;;;5.68;3.33;;;;;;;9.46;79.17;96090.78;5003033;28;20029;-58
2021/05/28 02:22:13;;;;;;;6.15;4.50;;;;;;;9.46;79.23;96088.13;5001762;28;20085;-57
2021/05/28 02:24:38;;;;;;;4.80;3.30;;;;;;;9.42;79.92;96085.88;5008823;28;20068;-58
2021/05/28 02:27:05;;;;;;;4.93;3.30;;;;;;;9.37;80.67;96078.34;5021264;28;20022;-58
2021/05/28 02:29:30;;;;;;;3.50;2.97;;;;;;;9.33;79.95;96090.09;5015619;28;20482;-58
2021/05/28 02:31:56;;;;;;;4.25;3.50;;;;;;;9.28;80.55;96092.25;5009352;28;20035;-58
2021/05/28 02:34:21;;;;;;;7.40;3.72;;;;;;;9.24;80.55;96094.28;5013764;28;20513;-58
2021/05/28 02:36:47;;;;;;;3.85;3.50;;;;;;;9.24;80.31;96102.16;5013358;28;20021;-58
2021/05/28 02:39:12;;;;;;;3.70;3.42;;;;;;;9.27;80.18;96095.84;5009141;28;20026;-58
2021/05/28 02:41:38;;;;;;;5.25;3.20;;;;;;;9.23;80.91;96092.63;5004585;28;20037;-57
2021/05/28 02:44:05;;;;;;;3.50;3.20;;;;;;;9.20;79.93;96089.44;5019161;28;20033;-58
2021/05/28 02:46:33;;;;;;;3.58;3.33;;;;;;;9.17;79.42;96090.50;5017846;28;20058;-58
2021/05/28 02:48:59;;;;;;;6.82;3.70;;;;;;;9.12;79.74;96088.22;5016491;28;20598;-58
2021/05/28 02:51:25;;;;;;;4.85;3.80;;;;;;;9.07;79.74;96097.47;5014035;28;20061;-58
2021/05/28 02:53:50;;;;;;;3.95;3.65;;;;;;;9.03;79.70;96091.59;5007243;28;20033;-58
2021/05/28 02:56:16;;;;;;;3.72;3.53;;;;;;;8.98;79.44;96091.16;5005666;28;20045;-58
2021/05/28 02:58:41;;;;;;;3.97;3.40;;;;;;;8.93;79.55;96090.66;5015669;28;20080;-57
2021/05/28 03:01:07;;;;;;;4.25;3.83;;;;;;;8.92;79.18;96097.72;5017123;28;20025;-58
2021/05/28 03:03:33;;;;;;;5.05;3.70;;;;;;;8.96;78.83;96093.88;5017404;28;20097;-58
2021/05/28 03:05:58;;;;;;;5.00;3.92;;;;;;;9.01;78.86;96089.09;5016570;28;20018;-58
2021/05/28 03:08:26;;;;;;;3.92;3.60;;;;;;;8.96;79.28;96087.81;5015511;28;20030;-58
2021/05/28 03:10:51;;;;;;;7.95;3.47;;;;;;;8.92;79.26;96073.22;5016882;28;20137;-58
2021/05/28 03:13:17;;;;;;;8.45;3.65;;;;;;;8.89;79.27;96088.28;5006517;28;20077;-58
2021/05/28 03:15:43;;;;;;;3.50;3.20;;;;;;;8.92;79.23;96087.22;5018294;28;20087;-58
2021/05/28 03:18:19;;;;;;;6.55;3.92;;;;;;;8.91;79.49;96090.78;5016609;28;20109;-58
2021/05/28 03:21:07;;;;;;;3.63;3.30;;;;;;;8.86;79.51;96080.66;5014666;28;20038;-58
2021/05/28 03:23:35;;;;;;;4.85;3.92;;;;;;;8.88;79.26;96081.34;5017402;28;20407;-58
2021/05/28 03:26:01;;;;;;;5.63;4.05;;;;;;;8.93;79.30;96085.41;5021304;28;20029;-58
2021/05/28 03:28:26;;;;;;;4.10;3.70;;;;;;;8.92;79.41;96092.47;5012600;28;20041;-58
2021/05/28 03:30:52;;;;;;;4.40;3.85;;;;;;;8.94;79.16;96094.94;5013359;28;20026;-58
2021/05/28 03:33:17;;;;;;;5.25;3.70;;;;;;;8.97;78.75;96099.97;5007656;28;20030;-57
2021/05/28 03:35:43;;;;;;;4.63;4.25;;;;;;;8.92;79.09;96105.59;5024900;28;20025;-58
2021/05/28 03:38:08;;;;;;;6.45;3.88;;;;;;;8.95;79.11;96113.22;5024345;28;20022;-57
2021/05/28 03:40:34;;;;;;;5.75;4.10;;;;;;;8.85;80.38;96114.91;5017234;28;20034;-58
2021/05/28 03:42:59;;;;;;;4.47;4.07;;;;;;;8.80;79.90;96120.50;5016489;28;20068;-58
2021/05/28 03:45:25;;;;;;;5.38;4.88;;;;;;;8.72;80.87;96110.63;5014128;28;20046;-58
2021/05/28 03:47:51;;;;;;;5.03;4.10;;;;;;;8.66;80.41;96108.47;5015094;28;20561;-57
2021/05/28 03:50:16;;;;;;;5.22;3.65;;;;;;;8.69;79.55;96105.59;5018015;28;20105;-58
2021/05/28 03:52:42;;;;;;;6.40;3.88;;;;;;;8.69;79.52;96102.13;5017466;28;20033;-58
2021/05/28 03:55:08;;;;;;;4.15;3.95;;;;;;;8.69;79.88;96107.38;5017208;28;20030;-57
2021/05/28 03:57:34;;;;;;;4.65;3.97;;;;;;;8.63;80.17;96113.97;5018442;28;20445;-59
2021/05/28 03:59:59;;;;;;;4.35;3.95;;;;;;;8.53;81.01;96113.84;5017628;28;20033;-59
2021/05/28 04:02:25;;;;;;;6.07;3.88;;;;;;;8.57;80.97;96117.06;5016422;28;20101;-58
2021/05/28 04:04:50;;;;;;;6.65;4.20;;;;;;;8.52;81.45;96122.69;5017170;28;20827;-56
2021/05/28 04:07:16;;;;;;;7.20;4.18;;;;;;;8.55;81.64;96122.44;5017970;28;20026;-57
2021/05/28 04:09:42;;;;;;;4.75;4.13;;;;;;;8.56;81.22;96118.00;5014461;28;20036;-58
2021/05/28 04:12:07;;;;;;;5.93;3.85;;;;;;;8.57;82.25;96120.53;5009223;28;20034;-55
2021/05/28 04:14:35;;;;;;;4.47;4.07;;;;;;;8.58;82.18;96126.59;5017206;28;20026;-57
2021/05/28 04:17:00;;;;;;;8.70;4.20;;;;;;;8.68;81.50;96121.47;5017697;28;20068;-54
2021/05/28 04:19:26;;;;;;;4.90;4.50;;;;;;;8.75;81.52;96130.56;5008113;28;20026;-56
2021/05/28 04:21:51;;;;;;;7.78;4.57;;;;;;;8.86;81.23;96137.59;5013196;28;20069;-55
2021/05/28 04:24:17;;;;;;;5.90;4.35;;;;;;;8.91;81.01;96137.19;5017188;28;20160;-57
2021/05/28 04:26:42;;;;;;;6.88;4.30;;;;;;;8.92;81.08;96139.72;5017615;28;20018;-56
2021/05/28 04:29:08;;;;;;;6.40;4.53;;;;;;;9.01;80.44;96143.41;5015767;28;20114;-56
2021/05/28 04:31:33;;;;;;;6.88;4.38;;;;;;;9.04;80.53;96140.53;5016939;28;20030;-57
2021/05/28 04:33:59;;;;;;;4.97;4.55;;;;;;;9.08;80.27;96144.59;5014595;28;20104;-57
2021/05/28 04:36:24;;;;;;;7.60;4.80;;;;;;;9.15;80.71;96150.19;5004401;28;20057;-57
2021/05/28 04:38:50;;;;;;;8.10;4.55;;;;;;;9.15;80.61;96158.09;5012579;28;20030;-56
2021/05/28 04:41:15;;;;;;;7.82;4.35;;;;;;;9.15;80.75;96144.94;5007750;28;20027;-56
2021/05/28 04:43:41;;;;;;;7.28;4.57;;;;;;;9.14;81.38;96145.91;5008766;28;20478;-57
2021/05/28 04:46:07;;;;;;;7.18;4.47;;;;;;;9.16;81.08;96147.44;5004935;28;20042;-57
2021/05/28 04:48:32;;;;;;;4.40;4.10;;;;;;;9.22;80.49;96154.00;5008106;28;20022;-56
2021/05/28 04:50:58;;;;;;;5.93;4.22;;;;;;;9.32;79.47;96156.72;5014102;28;20518;-57
2021/05/28 04:53:23;;;;;;;4.53;4.03;;;;;;;9.38;78.62;96153.59;5020291;28;20045;-57
2021/05/28 04:55:49;;;;;;;5.35;4.22;;;;;;;9.49;78.15;96159.81;5002233;28;20022;-57
2021/05/28 04:58:14;;;;;;;4.28;3.85;;;;;;;9.48;77.97;96160.75;5009772;28;20060;-56
2021/05/28 05:00:40;;;;;;;5.38;3.97;;;;;;;9.39;78.79;96157.09;5011400;28;20083;-57
2021/05/28 05:03:05;;;;;;;5.10;4.15;;;;;;;9.33;78.97;96158.41;5003996;28;20098;-56
2021/05/28 05:05:31;;;;;;;5.32;4.82;;;;;;;9.25;79.96;96161.63;5010471;28;20021;-55
2021/05/28 05:07:57;;;;;;;8.43;4.60;;;;;;;9.27;80.11;96164.16;5009701;28;20076;-57
2021/05/28 05:10:22;;;;;;;6.95;4.95;;;;;;;9.45;79.62;96154.81;5012650;28;20032;-57
2021/05/28 05:12:48;;;;;;;4.97;4.57;;;;;;;9.62;78.44;96157.03;5015774;28;20045;-57
2021/05/28 05:15:14;;;;;;;6.90;4.97;;;;;;;9.75;78.11;96157.69;5007891;28;20026;-56
2021/05/28 05:17:39;;;;;;;4.85;4.45;;;;;;;9.82;78.14;96150.97;5013284;28;20026;-56
2021/05/28 05:20:06;;;;;;;6.60;4.18;;;;;;;9.94;77.55;96146.50;5015705;28;20025;-54
2021/05/28 05:22:32;;;;;;;8.02;4.45;;;;;;;10.05;76.73;96148.22;5001609;28;20053;-58
2021/05/28 05:24:58;;;;;;;4.25;3.85;;;;;;;10.17;76.11;96156.91;5009598;28;20025;-57
2021/05/28 05:27:23;;;;;;;4.95;4.07;;;;;;;10.19;74.72;96141.81;5010987;28;20045;-57
2021/05/28 05:29:49;;;;;;;4.60;4.10;;;;;;;10.20;75.09;96147.94;5005138;28;20414;-58
2021/05/28 05:32:15;;;;;;;6.40;3.92;;;;;;;10.27;74.94;96147.25;5007005;28;20026;-57
2021/05/28 05:34:41;;;;;;;4.72;3.78;;;;;;;10.36;74.64;96148.28;4997584;28;20023;-55
2021/05/28 05:37:06;;;;;;;6.45;3.60;;;;;;;10.49;73.56;96145.47;5005388;28;20029;-57
2021/05/28 05:39:33;;;;;;;7.72;3.78;;;;;;;10.59;73.30;96145.53;5008116;28;20027;-56
2021/05/28 05:42:03;;;;;;;5.00;3.60;;;;;;;10.77;71.71;96152.84;5003210;28;20126;-58
2021/05/28 05:44:29;;;;;;;5.78;3.72;;;;;;;10.75;70.51;96143.25;5001145;28;20063;-57
2021/05/28 05:46:55;;;;;;;3.58;3.10;;;;;;;10.95;70.27;96142.53;5005467;28;20053;-57
2021/05/28 05:49:20;;;;;;;6.07;3.50;;;;;;;11.10;69.46;96138.53;5012444;28;20041;-58
2021/05/28 05:51:46;;;;;;;3.42;3.10;;;;;;;11.21;69.34;96131.50;5008795;28;20479;-59
2021/05/28 05:54:12;;;;;;;3.70;3.40;;;;;;;11.37;68.45;96126.53;5011272;28;20479;-57
2021/05/28 05:56:37;;;;;;;3.65;3.25;;;;;;;11.59;67.91;96135.16;5000657;28;20041;-55
2021/05/28 05:59:03;;;;;;;4.22;3.40;;;;;;;11.71;67.26;96139.34;5005628;28;20438;-58
2021/05/28 06:01:29;;;;;;;4.15;3.40;;;;;;;11.86;66.88;96129.19;5002292;28;20025;-58
2021/05/28 06:03:55;;;;;;;3.45;3.22;;;;;;;12.30;65.49;96127.94;5010138;28;20044;-58
2021/05/28 06:06:20;;;;;;;6.53;3.38;;;;;;;12.44;63.90;96121.38;5001954;28;20080;-59
2021/05/28 06:08:46;;;;;;;3.55;3.03;;;;;;;12.86;64.22;96130.72;5010121;28;20033;-58
2021/05/28 06:11:12;;;;;;;6.85;3.53;;;;;;;13.25;62.58;96145.53;5000757;28;20021;-58
2021/05/28 06:13:37;;;;;;;5.20;3.38;;;;;;;13.86;62.21;96143.22;5003683;28;20471;-58
2021/05/28 06:16:03;;;;;;;4.80;3.40;;;;;;;14.37;60.28;96145.28;5000765;28;20022;-58
2021/05/28 06:18:29;;;;;;;6.88;3.17;;;;;;;14.81;58.08;96137.31;5005594;28;20077;-58
2021/05/28 06:20:55;;;;;;;3.63;3.25;;;;;;;15.43;56.21;96144.22;5003821;28;20454;-58
2021/05/28 06:23:21;;;;;;;4.35;2.90;;;;;;;15.62;55.17;96142.28;5011999;28;20036;-58
2021/05/28 06:25:47;;;;;;;4.07;2.88;;;;;;;16.32;53.81;96138.38;5012456;28;20029;-58
2021/05/28 06:28:13;;;;;;;5.30;3.25;;;;;;;17.02;51.83;96141.44;5017762;28;20064;-58
2021/05/28 06:30:39;;;;;;;3.08;2.65;;;;;;;17.38;50.16;96134.78;5014651;28;20022;-58
2021/05/28 06:33:06;;;;;;;2.60;2.40;;;;;;;17.84;49.08;96134.00;4996863;28;20038;-58
2021/05/28 06:35:36;;;;;;;4.30;2.40;;;;;;;18.29;47.98;96131.56;4998774;28;20053;-58
2021/05/28 06:38:02;;;;;;;2.15;1.95;;;;;;;18.66;46.40;96133.53;4998796;28;20030;-59
2021/05/28 06:40:27;;;;;;;3.22;2.25;;;;;;;18.74;45.78;96138.81;5005366;28;20101;-58
2021/05/28 06:42:53;;;;;;;2.42;2.22;;;;;;;18.89;45.54;96136.94;5003707;28;20036;-58
2021/05/28 06:45:19;;;;;;;5.85;2.67;;;;;;;19.15;45.03;96143.72;5005615;28;20664;-58
2021/05/28 06:47:46;;;;;;;4.95;2.60;;;;;;;18.76;45.85;96142.94;5008824;28;20054;-58
2021/05/28 06:50:13;;;;;;;2.33;2.13;;;;;;;18.96;45.52;96137.06;5002069;28;20030;-59
2021/05/28 06:52:38;;;;;;;2.78;2.17;;;;;;;18.88;45.14;96143.31;5004081;28;20018;-59
2021/05/28 06:55:05;;;;;;;2.80;2.35;;;;;;;19.07;45.57;96138.47;5006764;28;20025;-59
2021/05/28 06:57:30;;;;;;;2.10;2.00;;;;;;;19.58;44.42;96126.97;5003093;28;20030;-59
2021/05/28 06:59:56;;;;;;;3.80;2.08;;;;;;;20.18;42.20;96129.47;5002124;28;20022;-59
2021/05/28 07:02:23;;;;;;;3.60;2.33;;;;;;;20.23;42.83;96125.38;5002543;28;20460;-59
2021/05/28 07:04:48;;;;;;;2.47;2.28;;;;;;;20.85;41.20;96129.16;5009935;28;20030;-59
2021/05/28 07:07:14;;;;;;;2.65;2.45;;;;;;;20.98;40.06;96127.59;5002551;28;20455;-59
2021/05/28 07:09:40;;;;;;;2.20;2.00;;;;;;;21.15;40.59;96128.94;4997317;28;20805;-59
2021/05/28 07:12:05;;;;;;;4.85;2.50;;;;;;;21.45;39.32;96135.88;5006522;28;20050;-59
2021/05/28 07:14:31;;;;;;;4.10;2.20;;;;;;;21.31;39.84;96127.78;4999892;28;20026;-59
2021/05/28 07:17:00;;;;;;;6.28;3.05;;;;;;;20.92;40.43;96134.56;5005422;28;20031;-59
2021/05/28 07:19:25;;;;;;;2.55;2.30;;;;;;;20.98;40.76;96133.78;5009315;28;20103;-59
2021/05/28 07:21:51;;;;;;;3.05;2.35;;;;;;;20.59;41.22;96135.16;5002380;28;20061;-59
2021/05/28 07:24:16;;;;;;;4.85;2.47;;;;;;;20.92;41.09;96133.75;5005458;28;20026;-59
2021/05/28 07:26:42;;;;;;;5.47;2.40;;;;;;;20.96;40.68;96130.47;4996195;28;20448;-60
2021/05/28 07:29:08;;;;;;;2.55;2.33;;;;;;;20.08;41.18;96131.63;5000309;28;20029;-59
2021/05/28 07:31:33;;;;;;;3.05;2.38;;;;;;;20.58;40.90;96128.16;5000943;28;20513;-59
2021/05/28 07:33:59;;;;;;;4.47;2.35;;;;;;;21.19;40.22;96126.69;5000239;28;20014;-59
2021/05/28 07:36:25;;;;;;;2.65;2.25;;;;;;;21.50;39.67;96128.06;5003124;28;20018;-59
2021/05/28 07:38:51;;;;;;;2.65;2.22;;;;;;;21.51;38.51;96131.56;5004549;28;20018;-59
2021/05/28 07:41:16;;;;;;;2.17;2.08;;;;;;;21.47;39.06;96128.47;5002487;28;20054;-59
2021/05/28 07:43:42;;;;;;;2.60;2.40;;;;;;;21.61;38.88;96121.31;5008310;28;20014;-60
2021/05/28 07:46:08;;;;;;;2.47;2.25;;;;;;;22.46;38.20;96120.00;5005309;28;20541;-60
2021/05/28 07:48:33;;;;;;;2.58;2.38;;;;;;;22.45;37.64;96121.03;5008087;28;20030;-59
2021/05/28 07:50:59;;;;;;;6.28;2.80;;;;;;;22.74;36.52;96124.34;5017058;28;20498;-60
2021/05/28 07:53:27;;;;;;;4.47;2.83;;;;;;;22.15;37.85;96126.78;5012908;28;20023;-60
2021/05/28 07:55:55;;;;;;;3.55;2.55;;;;;;;22.52;37.59;96124.56;5015529;28;20025;-59
2021/05/28 07:58:21;;;;;;;3.70;2.50;;;;;;;22.73;37.07;96112.78;5005600;28;20036;-59
2021/05/28 08:00:47;;;;;;;2.90;2.60;;;;;;;22.93;37.92;96103.06;5010008;28;20437;-60
2021/05/28 08:03:12;;;;;;;2.85;2.40;;;;;;;23.37;35.79;96101.50;5011527;28;20034;-60
2021/05/28 08:05:38;;;;;;;2.70;2.35;;;;;;;22.84;37.85;96102.44;4999411;28;20022;-60
2021/05/28 08:08:09;;;;;;;3.17;2.30;;;;;;;23.49;35.83;96104.34;5009411;28;20475;-60
2021/05/28 08:10:34;;;;;;;8.05;2.40;;;;;;;23.34;36.14;96101.91;5000230;28;20387;-59
2021/05/28 08:13:00;;;;;;;4.28;2.22;;;;;;;23.75;35.22;96097.97;5004652;28;20025;-59
2021/05/28 08:15:26;;;;;;;5.15;2.45;;;;;;;23.29;36.28;96094.50;5000427;28;20033;-60
2021/05/28 08:17:52;;;;;;;6.20;2.83;;;;;;;24.02;35.02;96094.34;5007001;28;20022;-60
2021/05/28 08:20:17;;;;;;;6.10;2.65;;;;;;;23.53;35.17;96099.34;5002937;28;20023;-60
2021/05/28 08:22:44;;;;;;;12.38;2.50;;;;;;;23.82;35.69;96089.88;5014019;28;20400;-60
2021/05/28 08:25:17;;;;;;;3.40;2.50;;;;;;;23.52;37.54;96085.09;5018262;28;20025;-59
2021/05/28 08:27:43;;;;;;;7.53;2.78;;;;;;;23.22;37.18;96082.09;5009278;28;20105;-59
2021/05/28 08:30:09;;;;;;;5.03;2.63;;;;;;;24.01;35.82;96085.47;5012529;28;20069;-60
2021/05/28 08:32:35;;;;;;;6.32;2.38;;;;;;;24.41;34.42;96070.84;5016658;28;20496;-60
2021/05/28 08:35:02;;;;;;;2.85;2.60;;;;;;;23.88;35.31;96070.22;5016000;28;20022;-60
2021/05/28 08:37:28;;;;;;;6.15;2.72;;;;;;;24.40;35.40;96071.06;5016427;28;20080;-60
2021/05/28 08:39:53;;;;;;;2.80;2.60;;;;;;;23.95;35.70;96069.34;5015610;28;20057;-60
2021/05/28 08:42:20;;;;;;;4.45;2.67;;;;;;;24.24;35.32;96062.53;5010254;28;20022;-60
2021/05/28 08:44:48;;;;;;;3.53;2.75;;;;;;;24.81;33.11;96056.22;5015938;28;20027;-60
2021/05/28 08:47:15;;;;;;;5.07;2.97;;;;;;;24.28;35.19;96060.19;5016786;28;20395;-60
2021/05/28 08:49:48;;;;;;;2.83;2.55;;;;;;;23.94;35.86;96057.75;5017028;28;20038;-59
2021/05/28 08:52:14;;;;;;;3.83;2.30;;;;;;;24.55;34.28;96052.72;5023621;28;20021;-60
2021/05/28 08:54:41;;;;;;;7.45;2.55;;;;;;;25.56;31.45;96048.91;5016735;28;20058;-59
2021/05/28 08:57:07;;;;;;;5.05;2.53;;;;;;;25.61;31.66;96048.22;5005169;28;20387;-60
2021/05/28 08:59:32;;;;;;;6.35;2.72;;;;;;;25.50;31.41;96052.53;5008030;28;20026;-59
2021/05/28 09:01:58;;;;;;;4.90;2.60;;;;;;;24.66;33.98;96047.66;5006428;28;20066;-59
2021/05/28 09:04:23;;;;;;;8.52;3.30;;;;;;;24.25;34.42;96056.09;5009347;28;20072;-60
2021/05/28 09:06:49;;;;;;;2.85;2.50;;;;;;;24.83;33.42;96051.41;5016788;28;20053;-60
2021/05/28 09:09:19;;;;;;;3.13;2.80;;;;;;;25.15;32.80;96047.75;5010654;28;20026;-60
2021/05/28 09:12:04;;;;;;;5.50;2.90;;;;;;;24.45;33.43;96047.84;5016427;28;20026;-59
2021/05/28 09:14:33;;;;;;;4.47;2.70;;;;;;;25.12;33.43;96040.13;5003179;28;20036;-60
2021/05/28 09:17:00;;;;;;;8.65;3.00;;;;;;;25.29;32.70;96041.16;5007455;28;20026;-60
2021/05/28 09:19:26;;;;;;;2.90;2.63;;;;;;;25.34;33.35;96042.34;5015128;28;20113;-60
2021/05/28 09:22:00;;;;;;;11.38;3.22;;;;;;;24.70;33.84;96036.22;5011105;28;20114;-59
2021/05/28 09:24:44;;;;;;;3.50;2.80;;;;;;;25.55;31.94;96038.38;5007319;28;20022;-59
2021/05/28 09:27:31;;;;;;;3.42;2.85;;;;;;;25.64;32.86;96031.59;5012128;28;20021;-59
2021/05/28 09:30:00;;;;;;;5.13;2.72;;;;;;;26.19;31.49;96026.22;5015006;28;20025;-60
2021/05/28 09:32:27;;;;;;;3.03;2.58;;;;;;;25.59;32.94;96024.19;5012050;28;20387;-60
2021/05/28 09:34:56;;;;;;;3.55;2.70;;;;;;;24.57;33.67;96029.09;5011373;28;20033;-60
2021/05/28 09:37:50;;;;;;;3.28;2.80;;;;;;;25.48;32.52;96016.91;5009957;28;20018;-60
2021/05/28 09:40:18;;;;;;;5.88;3.13;;;;;;;25.37;32.95;96014.94;5005589;28;20041;-60
2021/05/28 09:42:51;;;;;;;3.28;2.80;;;;;;;25.14;34.68;96021.88;5014423;28;20022;-59
2021/05/28 09:45:32;;;;;;;5.00;2.60;;;;;;;25.12;33.73;96024.81;5009630;28;20068;-60
2021/05/28 09:48:21;;;;;;;3.17;2.67;;;;;;;24.67;35.55;96008.94;5002185;28;20041;-60
2021/05/28 09:50:53;;;;;;;3.70;2.88;;;;;;;25.03;34.16;96009.97;5007310;28;20030;-60
2021/05/28 09:53:43;;;;;;;4.15;2.45;;;;;;;25.27;33.75;96015.47;5008260;28;20018;-60
2021/05/28 09:56:32;;;;;;;3.38;3.03;;;;;;;25.84;32.54;96006.22;5010671;28;20021;-60
2021/05/28 09:59:04;;;;;;;6.43;2.60;;;;;;;24.38;37.03;96012.13;5003951;28;20060;-60
2021/05/28 10:01:30;;;;;;;2.83;2.60;;;;;;;25.16;34.55;96004.44;5004342;28;20033;-60
2021/05/28 10:04:00;;;;;;;5.53;2.67;;;;;;;26.19;31.88;96000.06;5015141;28;20647;-60
2021/05/28 10:06:28;;;;;;;2.95;2.38;;;;;;;26.82;31.89;95992.25;5015450;28;20072;-60
2021/05/28 10:08:56;;;;;;;3.35;2.67;;;;;;;26.96;31.90;95997.44;5015372;28;20022;-60
2021/05/28 10:11:22;;;;;;;2.97;2.65;;;;;;;26.24;31.99;95997.50;5016071;28;20474;-60
2021/05/28 10:13:48;;;;;;;3.50;2.60;;;;;;;26.92;30.29;95991.69;5006768;28;20030;-60
2021/05/28 10:16:14;;;;;;;4.32;2.47;;;;;;;26.34;32.97;95993.38;5021983;28;20014;-60
2021/05/28 10:18:40;;;;;;;4.57;2.78;;;;;;;26.78;31.75;95985.69;5002981;28;20058;-60
2021/05/28 10:21:08;;;;;;;3.63;2.78;;;;;;;26.43;32.26;95994.69;5003958;28;20025;-60
2021/05/28 10:23:34;;;;;;;3.95;2.70;;;;;;;26.14;32.16;95989.13;5021149;28;20050;-60
2021/05/28 10:25:59;;;;;;;3.42;2.75;;;;;;;26.78;31.16;95980.31;5012606;28;20544;-60
2021/05/28 10:28:33;;;;;;;5.63;2.70;;;;;;;26.00;32.38;95975.03;5007871;28;20022;-60
2021/05/28 10:31:00;;;;;;;2.67;2.47;;;;;;;27.16;30.44;95970.81;5008264;28;20017;-60
2021/05/28 10:33:27;;;;;;;2.92;2.72;;;;;;;27.15;30.56;95971.06;5008974;28;20037;-60
2021/05/28 10:36:02;;;;;;;3.25;2.83;;;;;;;27.42;30.17;95965.09;5008291;28;20025;-60
2021/05/28 10:38:32;;;;;;;5.47;3.05;;;;;;;26.55;31.38;95960.38;5008519;28;20029;-60
2021/05/28 10:41:07;;;;;;;4.70;2.83;;;;;;;26.69;30.83;95958.25;5011893;28;20418;-59
2021/05/28 10:43:33;;;;;;;2.70;2.50;;;;;;;26.30;33.25;95957.94;5007028;28;20049;-60
2021/05/28 10:46:09;;;;;;;3.30;2.63;;;;;;;26.70;31.13;95950.97;5006558;28;20046;-59
2021/05/28 10:48:37;;;;;;;5.72;2.80;;;;;;;26.93;29.38;95952.00;5009469;28;20572;-60
2021/05/28 10:51:17;;;;;;;3.80;3.40;;;;;;;27.48;30.55;95950.59;5020948;28;20029;-60
2021/05/28 10:53:51;;;;;;;4.97;2.80;;;;;;;27.37;29.25;95954.16;5004761;28;20030;-60
2021/05/28 10:56:22;;;;;;;2.70;2.50;;;;;;;27.53;27.89;95952.59;5002247;28;20105;-60
2021/05/28 10:59:16;;;;;;;6.40;3.38;;;;;;;27.74;29.21;95951.88;5002143;28;20023;-60
2021/05/28 11:01:41;;;;;;;2.75;2.50;;;;;;;27.55;28.83;95945.06;5018549;28;20024;-60
2021/05/28 11:04:09;;;;;;;3.65;2.75;;;;;;;27.88;27.97;95946.97;5010186;28;20400;-60
2021/05/28 11:07:03;;;;;;;4.65;2.78;;;;;;;28.61;26.89;95937.19;5018729;28;20026;-60
2021/05/28 11:09:45;;;;;;;4.22;2.70;;;;;;;28.61;26.95;95939.88;5018472;28;20038;-60
2021/05/28 11:12:12;;;;;;;4.25;2.83;;;;;;;28.37;28.38;95940.13;5015768;28;20113;-60
2021/05/28 11:14:59;;;;;;;4.15;2.63;;;;;;;28.26;27.25;95936.44;5012901;28;20509;-60
2021/05/28 11:17:25;;;;;;;4.68;2.65;;;;;;;27.77;27.82;95934.31;5005496;28;20068;-60
2021/05/28 11:19:55;;;;;;;2.88;2.60;;;;;;;28.06;26.42;95933.41;5012701;28;20108;-60
2021/05/28 11:22:30;;;;;;;4.35;2.55;;;;;;;27.97;28.03;95931.13;5021322;28;20045;-60
2021/05/28 11:24:57;;;;;;;3.65;2.55;;;;;;;28.44;26.90;95923.69;5016785;28;20026;-60
2021/05/28 11:27:25;;;;;;;2.90;2.53;;;;;;;28.39;27.64;95919.03;5013910;28;20159;-60
2021/05/28 11:30:14;;;;;;;5.15;2.50;;;;;;;27.70;28.60;95920.16;5015326;28;20080;-60
2021/05/28 11:32:43;;;;;;;4.55;2.65;;;;;;;28.24;27.83;95922.34;5017001;28;20021;-60
2021/05/28 11:35:15;;;;;;;3.60;2.30;;;;;;;28.06;26.47;95914.47;5013078;28;20112;-60
2021/05/28 11:37:48;;;;;;;3.78;2.60;;;;;;;27.13;28.35;95913.75;5011811;28;20022;-61